Аэропорт: Новокузнецк-Спиченково. Новокузнецк

ICAO: UNWW

METAR:
2024-04-22 21:30:00
UNWW 222130Z 24002MPS CAVOK 01/M04 Q1015 R19/09//55 NOSIG RMK QFE734
TAF:
2024-04-22 20:00:00
TAF UNWW 222000Z 2221/2321 26003G08MPS 8000 BKN040CB TX03/2309Z TNM03/2318Z 
  TEMPO 2221/2302 20005G10MPS 1500 SHRASN BKN011CB 
  BECMG 2302/2303 32008G16MPS 
  TEMPO 2303/2311 34013G20MPS -SHSNRA BKN016CB 
  BECMG 2311/2312 35003G08MPS